Weather History for KOPM - May, 2013

Change the Weather History Date:

Friday, May 3, 2013

  Actual Average Record
Temperature  
Mean Temperature 62 °F -  
Max Temperature 66 °F - - ()
Min Temperature 57 °F - - ()
Degree Days  
Heating Degree Days 4    
Growing Degree Days 12 (Base 50)    
Moisture  
Dew Point 39 °F    
Average Humidity 46    
Maximum Humidity 77    
Minimum Humidity 30    
Precipitation  
Precipitation 0.00 in - - ()
Sea Level Pressure  
Sea Level Pressure 30.19 in    
Wind  
Wind Speed 23 mph (NNW)    
Max Wind Speed 36 mph    
Max Gust Speed 44 mph    
Visibility 10 miles    
Events      
T = Trace of Precipitation, MM = Missing Value Source: NWS Daily Summary

Daily Weather History Graph

Daily Weather History Graph

Search for Another Location

Airport or City:

Trip Planner

Search our weather history database for the weather conditions in past years. The results will help you decide how hot, cold, wet, or windy it might be!

Date:

Astronomy

May. 03, 2013 Rise Set
Actual Time 6:47 AM CDT 8:01 PM CDT
Civil Twilight 6:23 AM CDT 8:26 PM CDT
Nautical Twilight 5:54 AM CDT 8:55 PM CDT
Astronomical Twilight 5:23 AM CDT 9:25 PM CDT
Moon 2:38 AM CDT (5/3) 2:29 PM CDT (5/3)
Length of Visible Light 14h 03m
Length of Day
13h 14m
Last Quarter, 37% of the Moon is Illuminated
May 3
Last Quarter
May 9
New
May 17
First Quarter
May 24
Full
May 31
Last Quarter

Hourly Weather History & Observations

Time (CDT) Temp. Dew Point Humidity Pressure Visibility Wind Dir Wind Speed Gust Speed Precip Events Conditions
12:15 AM 59.0 °F 51.8 °F 77% 30.22 in 10.0 mi NW 24.2 mph 33.4 mph N/A   Overcast
12:35 AM 59.0 °F 50.0 °F 72% 30.22 in 10.0 mi NW 29.9 mph 36.8 mph N/A   Overcast
12:55 AM 59.0 °F 50.0 °F 72% 30.22 in 10.0 mi NNW 26.5 mph 33.4 mph N/A   Overcast
1:15 AM 59.0 °F 48.2 °F 67% 30.22 in 10.0 mi NNW 29.9 mph 38.0 mph N/A   Overcast
1:35 AM 59.0 °F 48.2 °F 67% 30.21 in 10.0 mi NW 31.1 mph 38.0 mph N/A   Overcast
1:55 AM 59.0 °F 48.2 °F 67% 30.20 in 10.0 mi NNW 25.3 mph 34.5 mph N/A   Overcast
2:15 AM 57.2 °F 48.2 °F 72% 30.20 in 10.0 mi NW 29.9 mph 39.1 mph N/A   Overcast
2:35 AM 57.2 °F 46.4 °F 67% 30.20 in 10.0 mi NW 27.6 mph 36.8 mph N/A   Overcast
2:55 AM 57.2 °F 46.4 °F 67% 30.20 in 10.0 mi NNW 26.5 mph 41.4 mph N/A   Overcast
3:15 AM 57.2 °F 44.6 °F 63% 30.19 in 10.0 mi NW 29.9 mph 40.3 mph N/A   Overcast
3:35 AM 57.2 °F 46.4 °F 67% 30.19 in 10.0 mi NNW 29.9 mph 38.0 mph N/A   Overcast
3:55 AM 57.2 °F 44.6 °F 63% 30.19 in 10.0 mi NNW 26.5 mph 38.0 mph N/A   Overcast
4:15 AM 57.2 °F 44.6 °F 63% 30.19 in 10.0 mi NNW 31.1 mph 39.1 mph N/A   Overcast
4:35 AM 57.2 °F 44.6 °F 63% 30.19 in 10.0 mi NNW 27.6 mph 41.4 mph N/A   Overcast
4:55 AM 57.2 °F 42.8 °F 59% 30.20 in 10.0 mi NW 33.4 mph 40.3 mph N/A   Overcast
5:15 AM 59.0 °F 44.6 °F 59% 30.19 in 10.0 mi NNW 25.3 mph 38.0 mph N/A   Overcast
5:35 AM 57.2 °F 42.8 °F 59% 30.20 in 10.0 mi NW 32.2 mph 42.6 mph N/A   Overcast
5:55 AM 57.2 °F 42.8 °F 59% 30.20 in 10.0 mi NNW 26.5 mph 39.1 mph N/A   Mostly Cloudy
6:15 AM 57.2 °F 42.8 °F 59% 30.21 in 10.0 mi NNW 32.2 mph 39.1 mph N/A   Mostly Cloudy
6:35 AM 57.2 °F 41.0 °F 55% 30.21 in 10.0 mi NW 35.7 mph - N/A   Scattered Clouds
6:55 AM 57.2 °F 39.2 °F 51% 30.23 in 10.0 mi NW 32.2 mph 43.7 mph N/A   Clear
7:15 AM 57.2 °F 41.0 °F 55% 30.24 in 10.0 mi NW 31.1 mph 39.1 mph N/A   Clear
7:35 AM 57.2 °F 39.2 °F 51% 30.25 in 9.0 mi NW 27.6 mph 40.3 mph N/A   Clear
7:55 AM 57.2 °F 39.2 °F 51% 30.26 in 10.0 mi NNW 29.9 mph 40.3 mph N/A   Clear
8:35 AM 57.2 °F 39.2 °F 51% 30.27 in 9.0 mi North - - N/A   Clear
8:55 AM 57.2 °F 39.2 °F 51% 30.28 in 10.0 mi NNW 25.3 mph 36.8 mph N/A   Clear
9:15 AM 59.0 °F 37.4 °F 45% 30.28 in 10.0 mi NNW 25.3 mph 42.6 mph N/A   Clear
9:35 AM 59.0 °F 39.2 °F 48% 30.29 in 9.0 mi NNW 25.3 mph 35.7 mph N/A   Clear
9:55 AM 59.0 °F 37.4 °F 45% 30.29 in 10.0 mi NNW 25.3 mph 35.7 mph N/A   Clear
10:15 AM 59.0 °F 37.4 °F 45% 30.30 in 10.0 mi NNW 21.9 mph 35.7 mph N/A   Clear
10:35 AM 59.0 °F 37.4 °F 45% 30.29 in 10.0 mi NW 29.9 mph 36.8 mph N/A   Clear
10:55 AM 59.0 °F 37.4 °F 45% 30.30 in 10.0 mi NW 27.6 mph 36.8 mph N/A   Clear
11:15 AM 60.8 °F 33.8 °F 36% 30.29 in 10.0 mi NNW 25.3 mph 34.5 mph N/A   Clear
11:35 AM 60.8 °F 35.6 °F 39% 30.30 in - NW 26.5 mph - N/A   Clear
11:55 AM 60.8 °F 37.4 °F 42% 30.29 in 10.0 mi NW 23.0 mph 29.9 mph N/A   Clear
12:15 PM 60.8 °F 35.6 °F 39% 30.28 in 10.0 mi NW 25.3 mph 31.1 mph N/A   Clear
12:35 PM 60.8 °F 35.6 °F 39% 30.28 in 10.0 mi NW 20.7 mph 27.6 mph N/A   Clear
12:55 PM 62.6 °F 35.6 °F 37% 30.26 in 10.0 mi NW 20.7 mph 27.6 mph N/A   Clear
1:15 PM 62.6 °F 37.4 °F 39% 30.26 in 10.0 mi NW 19.6 mph 27.6 mph N/A   Unknown
1:35 PM 62.6 °F 35.6 °F 37% 30.24 in 10.0 mi NW 20.7 mph 28.8 mph N/A   Clear
1:55 PM 62.6 °F 35.6 °F 37% 30.23 in 10.0 mi NNW 20.7 mph 26.5 mph N/A   Clear
2:15 PM 64.4 °F 35.6 °F 34% 30.22 in 10.0 mi NW 16.1 mph 24.2 mph N/A   Clear
2:35 PM 64.4 °F 33.8 °F 32% 30.21 in 10.0 mi NW 18.4 mph - N/A   Clear
2:55 PM 64.4 °F 35.6 °F 34% 30.20 in 10.0 mi NNW 16.1 mph 21.9 mph N/A   Clear
3:35 PM 64.4 °F 35.6 °F 34% 30.18 in 10.0 mi NNW 12.7 mph 18.4 mph N/A   Clear
3:55 PM 66.2 °F 35.6 °F 32% 30.16 in 10.0 mi NNW 13.8 mph 20.7 mph N/A   Clear
4:15 PM 64.4 °F 35.6 °F 34% 30.15 in 10.0 mi NNW 12.7 mph - N/A   Clear
4:35 PM 64.4 °F 35.6 °F 34% 30.14 in 10.0 mi NNW 10.4 mph 17.3 mph N/A   Clear
4:55 PM 64.4 °F 33.8 °F 32% 30.13 in 10.0 mi NNW 12.7 mph - N/A   Clear
5:15 PM 64.4 °F 35.6 °F 34% 30.13 in 10.0 mi NNW 10.4 mph 17.3 mph N/A   Clear
5:35 PM 66.2 °F 33.8 °F 30% 30.12 in 10.0 mi NNW 10.4 mph - N/A   Clear
5:55 PM 66.2 °F 33.8 °F 30% 30.12 in 10.0 mi NNW 10.4 mph - N/A   Clear
6:15 PM 64.4 °F 33.8 °F 32% 30.11 in 10.0 mi North 6.9 mph 13.8 mph N/A   Clear
6:35 PM 64.4 °F 35.6 °F 34% 30.11 in 10.0 mi Variable 5.8 mph 12.7 mph N/A   Clear
6:55 PM 64.4 °F 37.4 °F 37% 30.10 in 10.0 mi Variable 6.9 mph 15.0 mph N/A   Clear
7:15 PM 66.2 °F 35.6 °F 32% 30.10 in 10.0 mi North 5.8 mph - N/A   Clear
7:35 PM 66.2 °F 37.4 °F 35% 30.11 in 10.0 mi Variable 6.9 mph - N/A   Clear
7:55 PM 66.2 °F 37.4 °F 35% 30.11 in 10.0 mi North 6.9 mph 12.7 mph N/A   Clear
8:15 PM 66.2 °F 35.6 °F 32% 30.11 in 10.0 mi North 5.8 mph - N/A   Clear
8:35 PM 66.2 °F 37.4 °F 35% 30.11 in 10.0 mi North 6.9 mph - N/A   Clear
8:55 PM 66.2 °F 37.4 °F 35% 30.12 in 10.0 mi North 4.6 mph - N/A   Clear
9:15 PM 66.2 °F 35.6 °F 32% 30.12 in 10.0 mi North 6.9 mph - N/A   Clear
9:35 PM 66.2 °F 37.4 °F 35% 30.12 in 10.0 mi Variable 4.6 mph 11.5 mph N/A   Clear
9:55 PM 66.2 °F 37.4 °F 35% 30.13 in 10.0 mi Variable 5.8 mph 11.5 mph N/A   Clear
10:15 PM 66.2 °F 37.4 °F 35% 30.13 in 10.0 mi North 5.8 mph 12.7 mph N/A   Clear
10:35 PM 66.2 °F 39.2 °F 37% 30.13 in 10.0 mi North 6.9 mph - N/A   Clear
10:55 PM 66.2 °F 37.4 °F 35% 30.13 in 10.0 mi North 5.8 mph - N/A   Clear
11:15 PM 66.2 °F 37.4 °F 35% 30.12 in 10.0 mi Variable 5.8 mph 11.5 mph N/A   Clear
11:35 PM 66.2 °F 37.4 °F 35% 30.12 in 10.0 mi North 5.8 mph - N/A   Clear
11:55 PM 66.2 °F 35.6 °F 32% 30.11 in 10.0 mi North 5.8 mph - N/A   Clear